createdAt,value
2023-03-21T00:01:51.800Z,35.85
2023-03-21T00:04:19.495Z,41.13
2023-03-21T00:06:46.676Z,43.45
2023-03-21T00:09:14.004Z,42.22
2023-03-21T00:11:41.126Z,35.22
2023-03-21T00:14:09.274Z,34.35
2023-03-21T00:16:38.053Z,31.80
2023-03-21T00:19:07.472Z,41.53
2023-03-21T00:21:49.022Z,39.08
2023-03-21T00:24:19.367Z,38.95
2023-03-21T00:26:46.537Z,38.28
2023-03-21T00:29:13.783Z,44.50
2023-03-21T00:31:40.566Z,39.85
2023-03-21T00:34:07.680Z,50.67
2023-03-21T00:36:34.957Z,45.92
2023-03-21T00:39:02.161Z,49.78
2023-03-21T00:41:41.840Z,43.58
2023-03-21T00:44:14.060Z,35.80
2023-03-21T00:46:54.071Z,44.17
2023-03-21T00:49:28.022Z,49.95
2023-03-21T00:51:57.214Z,48.03
2023-03-21T00:54:24.068Z,44.70
2023-03-21T00:56:51.321Z,41.42
2023-03-21T00:59:18.016Z,40.95
2023-03-21T01:01:47.006Z,44.35
2023-03-21T01:04:16.574Z,43.80
2023-03-21T01:06:44.642Z,43.22
2023-03-21T01:09:17.473Z,41.10
2023-03-21T01:11:45.591Z,34.88
2023-03-21T01:14:22.434Z,28.85
2023-03-21T01:16:52.322Z,32.80
2023-03-21T01:19:29.065Z,35.72
2023-03-21T01:21:56.847Z,34.65
2023-03-21T01:24:23.912Z,37.25
2023-03-21T01:26:51.130Z,31.20
2023-03-21T01:29:17.975Z,35.88
2023-03-21T01:31:45.321Z,36.53
2023-03-21T01:34:12.330Z,32.55
2023-03-21T01:36:39.516Z,26.63
2023-03-21T01:39:09.291Z,31.00
2023-03-21T01:41:43.506Z,29.27
2023-03-21T01:44:17.808Z,25.95
2023-03-21T01:47:09.745Z,32.10
2023-03-21T01:49:47.020Z,28.23
2023-03-21T01:52:36.995Z,35.58
2023-03-21T01:55:12.217Z,30.83
2023-03-21T01:57:58.523Z,26.35
2023-03-21T02:00:33.343Z,27.70
2023-03-21T02:03:13.733Z,26.23
2023-03-21T02:06:04.873Z,28.92
2023-03-21T02:08:39.466Z,29.38
2023-03-21T02:11:09.921Z,29.92
2023-03-21T02:13:37.116Z,33.95
2023-03-21T02:16:25.669Z,24.70
2023-03-21T02:19:12.629Z,34.92
2023-03-21T02:22:12.536Z,28.88
2023-03-21T02:25:01.253Z,37.63
2023-03-21T02:27:37.931Z,35.53
2023-03-21T02:30:49.036Z,38.85
2023-03-21T02:33:42.988Z,29.42
2023-03-21T02:36:42.085Z,36.83
2023-03-21T02:39:19.459Z,45.45
2023-03-21T02:42:11.950Z,42.38
2023-03-21T02:44:44.181Z,34.92
2023-03-21T02:47:36.008Z,40.38
2023-03-21T02:50:27.969Z,41.83
2023-03-21T02:52:56.227Z,43.47
2023-03-21T02:55:29.918Z,38.95
2023-03-21T02:58:10.243Z,42.63
2023-03-21T03:00:39.574Z,35.05
2023-03-21T03:03:10.475Z,41.67
2023-03-21T03:05:48.138Z,37.97
2023-03-21T03:08:45.300Z,33.17
2023-03-21T03:11:28.952Z,33.53
2023-03-21T03:17:37.373Z,38.67
2023-03-21T03:20:22.609Z,35.65
2023-03-21T03:23:09.401Z,46.20
2023-03-21T03:25:43.973Z,48.60
2023-03-21T03:28:14.491Z,49.30
2023-03-21T03:30:57.175Z,44.55
2023-03-21T03:33:33.113Z,41.47
2023-03-21T03:36:06.463Z,45.20
2023-03-21T03:38:36.445Z,40.50
2023-03-21T03:41:12.873Z,44.08
2023-03-21T03:43:51.035Z,42.15
2023-03-21T03:46:30.381Z,49.75
2023-03-21T03:49:16.975Z,41.05
2023-03-21T03:52:08.207Z,38.03
2023-03-21T03:54:43.023Z,41.47
2023-03-21T03:57:12.172Z,45.63
2023-03-21T03:59:42.009Z,38.53
2023-03-21T04:02:09.117Z,39.53
2023-03-21T04:04:37.511Z,45.40
2023-03-21T04:07:04.980Z,41.08
2023-03-21T04:09:43.750Z,41.95
2023-03-21T04:12:12.881Z,47.95
2023-03-21T04:14:45.721Z,46.40
2023-03-21T04:17:14.691Z,50.20
2023-03-21T04:19:41.957Z,47.38
2023-03-21T04:22:08.885Z,41.97
2023-03-21T04:24:37.901Z,46.72
2023-03-21T04:27:05.939Z,46.58
2023-03-21T04:29:33.100Z,45.92
2023-03-21T04:32:00.365Z,40.75
2023-03-21T04:34:28.330Z,46.15
2023-03-21T04:36:56.372Z,52.78
2023-03-21T04:39:24.630Z,50.45
2023-03-21T04:41:51.903Z,43.85
2023-03-21T04:44:19.084Z,43.80
2023-03-21T04:46:46.325Z,48.90
2023-03-21T04:49:13.497Z,41.50
2023-03-21T04:51:41.710Z,42.35
2023-03-21T04:54:11.910Z,44.38
2023-03-21T04:56:39.028Z,44.38
2023-03-21T04:59:10.794Z,44.22
2023-03-21T05:01:37.901Z,41.28
2023-03-21T05:04:05.116Z,47.25
2023-03-21T05:06:32.812Z,56.15
2023-03-21T05:09:01.015Z,43.58
2023-03-21T05:11:30.989Z,50.00
2023-03-21T05:13:59.441Z,44.92
2023-03-21T05:16:30.523Z,47.53
2023-03-21T05:19:05.986Z,50.30
2023-03-21T05:21:42.239Z,45.63
2023-03-21T05:24:12.284Z,50.97
2023-03-21T05:26:40.648Z,47.03
2023-03-21T05:29:08.034Z,53.10
2023-03-21T05:31:34.973Z,55.53
2023-03-21T05:34:02.036Z,49.75
2023-03-21T05:36:30.156Z,50.65
2023-03-21T05:38:56.882Z,41.88
2023-03-21T05:41:24.019Z,44.42
2023-03-21T05:43:51.180Z,45.90
2023-03-21T05:46:17.939Z,56.45
2023-03-21T05:48:46.281Z,42.72
2023-03-21T05:51:13.048Z,47.72
2023-03-21T05:53:39.832Z,46.28
2023-03-21T05:56:07.282Z,51.72
2023-03-21T05:58:35.437Z,42.88
2023-03-21T06:01:02.156Z,45.95
2023-03-21T06:03:29.705Z,48.38
2023-03-21T06:05:56.484Z,33.75
2023-03-21T06:08:23.634Z,40.80
2023-03-21T06:10:50.400Z,44.90
2023-03-21T06:13:17.599Z,39.60
2023-03-21T06:15:44.409Z,45.83
2023-03-21T06:18:12.197Z,48.15
2023-03-21T06:20:38.920Z,45.08
2023-03-21T06:23:07.259Z,40.85
2023-03-21T06:25:34.018Z,38.33
2023-03-21T06:28:01.112Z,41.30
2023-03-21T06:30:27.870Z,40.22
2023-03-21T06:32:55.826Z,43.17
2023-03-21T06:35:22.598Z,32.47
2023-03-21T06:37:49.855Z,45.95
2023-03-21T06:40:17.364Z,37.47
2023-03-21T06:42:44.493Z,37.70
2023-03-21T06:45:12.052Z,35.00
2023-03-21T06:47:39.026Z,34.53
2023-03-21T06:50:07.501Z,33.20
2023-03-21T06:52:34.296Z,31.25
2023-03-21T06:55:01.455Z,33.00
2023-03-21T06:57:28.242Z,29.88
2023-03-21T06:59:55.368Z,27.08
2023-03-21T07:02:22.512Z,31.73
2023-03-21T07:04:49.300Z,26.85
2023-03-21T07:07:16.148Z,28.27
2023-03-21T07:09:43.561Z,32.42
2023-03-21T07:12:11.445Z,27.55
2023-03-21T07:14:38.179Z,33.20
2023-03-21T07:17:05.359Z,39.40
2023-03-21T07:19:32.511Z,30.90
2023-03-21T07:22:00.197Z,27.52
2023-03-21T07:24:27.819Z,32.60
2023-03-21T07:26:54.652Z,36.97
2023-03-21T07:29:23.784Z,35.25
2023-03-21T07:31:50.851Z,36.40
2023-03-21T07:34:19.268Z,33.03
2023-03-21T07:36:46.164Z,29.08
2023-03-21T07:39:13.320Z,40.35
2023-03-21T07:41:40.359Z,32.42
2023-03-21T07:46:39.082Z,35.50
2023-03-21T07:49:06.309Z,35.38
2023-03-21T07:51:35.421Z,32.10
2023-03-21T07:54:02.773Z,37.20
2023-03-21T07:56:29.538Z,31.15
2023-03-21T07:58:56.754Z,37.05
2023-03-21T08:01:23.541Z,28.85
2023-03-21T08:03:51.791Z,25.08
2023-03-21T08:06:18.548Z,31.88
2023-03-21T08:08:45.647Z,31.65
2023-03-21T08:11:12.775Z,32.90
2023-03-21T08:13:39.984Z,27.35
2023-03-21T08:16:07.907Z,30.60
2023-03-21T08:18:36.045Z,29.83
2023-03-21T08:21:03.296Z,30.67
2023-03-21T08:23:30.318Z,26.08
2023-03-21T08:25:57.988Z,22.63
2023-03-21T08:28:25.257Z,24.77
2023-03-21T08:30:52.144Z,27.38
2023-03-21T08:33:19.627Z,20.70
2023-03-21T08:35:47.368Z,28.27
2023-03-21T08:38:14.531Z,24.10
2023-03-21T08:40:42.052Z,30.65
2023-03-21T08:43:08.909Z,31.60
2023-03-21T08:45:36.510Z,27.50
2023-03-21T08:48:04.026Z,30.15
2023-03-21T08:50:31.850Z,27.48
2023-03-21T08:52:58.687Z,26.48
2023-03-21T08:55:26.436Z,32.85
2023-03-21T08:57:53.174Z,30.73
2023-03-21T09:00:22.700Z,26.30
2023-03-21T09:02:52.459Z,26.10
2023-03-21T09:05:20.432Z,28.08
2023-03-21T09:07:47.554Z,25.83
2023-03-21T09:10:25.832Z,28.73
2023-03-21T09:12:54.734Z,28.88
2023-03-21T09:15:24.853Z,34.25
2023-03-21T09:17:57.517Z,29.95
2023-03-21T09:20:31.193Z,33.00
2023-03-21T09:22:59.219Z,19.70
2023-03-21T09:25:29.479Z,29.50
2023-03-21T09:27:56.873Z,23.63
2023-03-21T09:30:26.126Z,19.80
2023-03-21T09:32:55.322Z,21.92
2023-03-21T09:35:22.581Z,32.28
2023-03-21T09:37:50.111Z,22.00
2023-03-21T09:40:27.802Z,21.77
2023-03-21T09:43:09.490Z,28.33
2023-03-21T09:45:51.749Z,24.05
2023-03-21T09:48:34.973Z,24.27
2023-03-21T09:51:05.643Z,24.08
2023-03-21T09:53:39.440Z,24.58
2023-03-21T09:56:09.650Z,23.30
2023-03-21T09:58:43.736Z,25.05
2023-03-21T10:01:22.324Z,18.90
2023-03-21T10:03:51.042Z,17.67
2023-03-21T10:06:18.966Z,21.10
2023-03-21T10:08:47.585Z,21.33
2023-03-21T10:11:18.008Z,26.75
2023-03-21T10:13:52.582Z,24.67
2023-03-21T10:16:34.283Z,25.70
2023-03-21T10:19:05.843Z,27.30
2023-03-21T10:22:00.259Z,22.67
2023-03-21T10:24:28.400Z,22.47
2023-03-21T10:26:57.011Z,18.80
2023-03-21T10:29:29.608Z,23.40
2023-03-21T10:31:57.180Z,26.00
2023-03-21T10:34:40.025Z,24.87
2023-03-21T10:37:07.780Z,22.53
2023-03-21T10:39:41.129Z,22.97
2023-03-21T10:42:22.185Z,23.80
2023-03-21T10:44:50.926Z,26.13
2023-03-21T10:47:26.016Z,22.83
2023-03-21T10:50:10.495Z,24.30
2023-03-21T10:52:48.443Z,22.40
2023-03-21T10:55:30.640Z,26.83
2023-03-21T10:58:01.859Z,24.03
2023-03-21T11:00:37.485Z,26.30
2023-03-21T11:03:05.466Z,25.60
2023-03-21T11:05:40.090Z,23.33
2023-03-21T11:08:16.019Z,22.10
2023-03-21T11:10:54.067Z,24.47
2023-03-21T11:13:26.793Z,24.00
2023-03-21T11:15:59.371Z,24.73
2023-03-21T11:18:30.991Z,28.13
2023-03-21T11:21:03.567Z,24.10
2023-03-21T11:23:32.838Z,32.73
2023-03-21T11:26:01.910Z,25.00
2023-03-21T11:28:41.050Z,29.67
2023-03-21T11:31:10.724Z,26.40
2023-03-21T11:33:43.903Z,31.75
2023-03-21T11:36:19.715Z,30.43
2023-03-21T11:38:57.211Z,29.93
2023-03-21T11:41:29.632Z,33.17
2023-03-21T11:43:57.451Z,29.10
2023-03-21T11:46:30.976Z,25.70
2023-03-21T11:48:59.656Z,27.90
2023-03-21T11:51:48.442Z,28.70
2023-03-21T11:54:41.831Z,27.20
2023-03-21T11:57:32.910Z,32.03
2023-03-21T12:00:26.546Z,29.17
2023-03-21T12:03:41.498Z,28.40
2023-03-21T12:06:38.565Z,27.20
2023-03-21T12:09:38.232Z,31.03
2023-03-21T12:12:13.731Z,33.63
2023-03-21T12:14:53.974Z,25.90
2023-03-21T12:17:54.919Z,46.53
2023-03-21T12:20:30.515Z,29.33
2023-03-21T12:23:11.490Z,33.10
2023-03-21T12:25:42.812Z,30.20
2023-03-21T12:28:33.286Z,29.83
2023-03-21T12:31:18.311Z,27.20
2023-03-21T12:34:04.051Z,30.00
2023-03-21T12:36:59.194Z,23.73
2023-03-21T12:39:30.504Z,27.00
2023-03-21T12:42:09.811Z,27.13
2023-03-21T12:44:41.967Z,28.90
2023-03-21T12:47:20.105Z,26.40
2023-03-21T12:49:56.789Z,21.93
2023-03-21T12:52:29.178Z,24.43
2023-03-21T12:55:07.763Z,28.97
2023-03-21T12:57:56.413Z,26.00
2023-03-21T13:00:48.622Z,31.20
2023-03-21T13:03:30.239Z,23.97
2023-03-21T13:06:06.342Z,25.37
2023-03-21T13:09:05.284Z,28.27
2023-03-21T13:11:33.682Z,22.13
2023-03-21T13:14:08.888Z,22.40
2023-03-21T13:16:35.750Z,26.93
2023-03-21T13:19:20.275Z,20.10
2023-03-21T13:22:05.776Z,27.53
2023-03-21T13:24:38.162Z,28.80
2023-03-21T13:27:16.518Z,31.73
2023-03-21T13:29:48.071Z,26.03
2023-03-21T13:32:26.498Z,22.30
2023-03-21T13:35:18.817Z,28.27
2023-03-21T13:38:06.616Z,23.40
2023-03-21T13:40:52.273Z,28.90
2023-03-21T13:43:51.898Z,21.00
2023-03-21T13:46:25.000Z,20.67
2023-03-21T13:49:10.572Z,30.00
2023-03-21T13:51:37.707Z,24.60
2023-03-21T13:54:22.025Z,26.00
2023-03-21T13:56:57.773Z,21.50
2023-03-21T13:59:37.067Z,18.33
2023-03-21T14:02:18.668Z,25.80
2023-03-21T14:05:03.932Z,18.23
2023-03-21T14:07:35.384Z,20.80
2023-03-21T14:10:06.612Z,21.73
2023-03-21T14:12:42.716Z,22.60
2023-03-21T14:15:16.840Z,17.87
2023-03-21T14:17:53.969Z,18.80
2023-03-21T14:20:32.105Z,27.43
2023-03-21T14:22:59.470Z,29.70
2023-03-21T14:25:44.725Z,22.67
2023-03-21T14:28:20.518Z,23.97
2023-03-21T14:30:53.830Z,21.53
2023-03-21T14:33:42.056Z,19.97
2023-03-21T14:36:17.956Z,25.80
2023-03-21T14:39:02.752Z,22.53
2023-03-21T14:41:31.054Z,25.87
2023-03-21T14:44:12.715Z,30.43
2023-03-21T14:46:42.542Z,26.47
2023-03-21T14:49:21.842Z,21.97
2023-03-21T14:51:51.852Z,25.40
2023-03-21T14:54:19.242Z,23.98
2023-03-21T14:56:49.815Z,29.48
2023-03-21T14:59:22.285Z,26.10
2023-03-21T15:01:51.330Z,26.53
2023-03-21T15:04:18.753Z,24.00
2023-03-21T15:07:05.352Z,24.17
2023-03-21T15:09:35.251Z,25.90
2023-03-21T15:12:08.006Z,24.52
2023-03-21T15:14:36.771Z,23.67
2023-03-21T15:17:06.344Z,24.07
2023-03-21T15:19:40.141Z,28.77
2023-03-21T15:22:22.377Z,23.80
2023-03-21T15:24:54.480Z,27.93
2023-03-21T15:27:24.710Z,26.40
2023-03-21T15:29:57.228Z,25.67
2023-03-21T15:32:29.833Z,31.17
2023-03-21T15:35:06.130Z,28.50
2023-03-21T15:37:37.661Z,30.08
2023-03-21T15:40:21.534Z,30.90
2023-03-21T15:42:48.581Z,25.37
2023-03-21T15:45:19.768Z,28.40
2023-03-21T15:48:08.505Z,27.52
2023-03-21T15:50:42.135Z,30.10
2023-03-21T15:53:17.115Z,28.90
2023-03-21T15:55:48.596Z,26.00
2023-03-21T15:58:22.214Z,27.05
2023-03-21T16:00:56.008Z,28.57
2023-03-21T16:03:24.502Z,25.05
2023-03-21T16:06:15.444Z,26.73
2023-03-21T16:08:47.565Z,27.17
2023-03-21T16:11:23.848Z,27.00
2023-03-21T16:13:58.513Z,28.95
2023-03-21T16:16:27.610Z,25.05
2023-03-21T16:18:55.848Z,33.00
2023-03-21T16:21:29.526Z,34.72
2023-03-21T16:23:58.170Z,26.00
2023-03-21T16:26:27.706Z,33.65
2023-03-21T16:28:54.676Z,33.10
2023-03-21T16:31:24.222Z,27.00
2023-03-21T16:33:51.943Z,32.05
2023-03-21T16:36:28.930Z,34.08
2023-03-21T16:38:56.557Z,31.52
2023-03-21T16:41:25.901Z,28.73
2023-03-21T16:43:53.973Z,30.58
2023-03-21T16:46:27.223Z,40.17
2023-03-21T16:48:56.502Z,35.28
2023-03-21T16:51:29.725Z,32.15
2023-03-21T16:53:58.363Z,28.13
2023-03-21T16:56:47.503Z,31.95
2023-03-21T16:59:15.953Z,33.30
2023-03-21T17:01:46.091Z,31.95
2023-03-21T17:04:13.982Z,34.88
2023-03-21T17:06:52.816Z,35.70
2023-03-21T17:09:26.286Z,32.33
2023-03-21T17:11:53.481Z,30.20
2023-03-21T17:14:21.636Z,30.67
2023-03-21T17:16:48.903Z,28.23
2023-03-21T17:19:23.931Z,31.92
2023-03-21T17:21:50.728Z,32.75
2023-03-21T17:24:17.858Z,34.67
2023-03-21T17:26:44.691Z,33.15
2023-03-21T17:29:14.196Z,41.05
2023-03-21T17:31:41.184Z,31.05
2023-03-21T17:34:08.576Z,32.40
2023-03-21T17:36:41.070Z,30.25
2023-03-21T17:39:12.831Z,31.58
2023-03-21T17:41:39.832Z,44.00
2023-03-21T17:44:07.273Z,36.35
2023-03-21T17:46:37.092Z,28.92
2023-03-21T17:49:05.800Z,30.77
2023-03-21T17:51:33.235Z,29.95
2023-03-21T17:54:00.694Z,29.60
2023-03-21T17:56:30.874Z,37.30
2023-03-21T17:59:03.671Z,30.45
2023-03-21T18:01:34.522Z,40.95
2023-03-21T18:04:05.488Z,44.55
2023-03-21T18:06:34.158Z,42.13
2023-03-21T18:09:04.016Z,51.53
2023-03-21T18:11:31.476Z,53.80
2023-03-21T18:14:10.234Z,61.85
2023-03-21T18:16:42.396Z,62.28
2023-03-21T18:19:10.882Z,53.38
2023-03-21T18:21:40.937Z,52.40
2023-03-21T18:24:08.219Z,42.67
2023-03-21T18:26:35.325Z,48.35
2023-03-21T18:29:57.260Z,44.78
2023-03-21T18:32:04.815Z,46.10
2023-03-21T18:34:33.037Z,44.95
2023-03-21T18:37:03.711Z,42.85
2023-03-21T18:39:33.108Z,51.90
2023-03-21T18:42:02.651Z,44.63
2023-03-21T18:44:37.302Z,40.47
2023-03-21T18:47:05.676Z,43.47
2023-03-21T18:52:19.657Z,46.15
2023-03-21T18:54:46.740Z,48.95
2023-03-21T18:57:35.079Z,56.25
2023-03-21T19:00:01.497Z,57.20
2023-03-21T19:02:28.312Z,44.03
2023-03-21T19:04:57.721Z,48.58
2023-03-21T19:07:24.914Z,54.03
2023-03-21T19:10:16.578Z,57.33
2023-03-21T19:12:39.042Z,46.25
2023-03-21T19:15:07.410Z,46.10
2023-03-21T19:20:21.706Z,49.00
2023-03-21T19:22:48.868Z,53.00
2023-03-21T19:25:16.921Z,54.78
2023-03-21T19:27:44.212Z,48.90
2023-03-21T19:30:15.751Z,49.03
2023-03-21T19:32:43.157Z,61.63
2023-03-21T19:35:11.093Z,46.75
2023-03-21T19:37:38.303Z,46.47
2023-03-21T19:40:06.917Z,41.58
2023-03-21T19:42:36.287Z,44.25
2023-03-21T19:45:05.070Z,48.90
2023-03-21T19:47:32.808Z,51.05
2023-03-21T19:50:45.556Z,47.22
2023-03-21T19:52:46.854Z,42.88
2023-03-21T19:55:14.905Z,46.75
2023-03-21T19:57:41.836Z,49.45
2023-03-21T20:00:11.466Z,42.05
2023-03-21T20:02:38.630Z,46.92
2023-03-21T20:05:07.075Z,44.47
2023-03-21T20:07:34.191Z,47.63
2023-03-21T20:10:01.235Z,47.55
2023-03-21T20:12:28.106Z,47.22
2023-03-21T20:15:06.909Z,49.63
2023-03-21T20:17:36.685Z,50.63
2023-03-21T20:20:09.365Z,50.08
2023-03-21T20:23:05.099Z,52.25
2023-03-21T20:25:23.259Z,58.75
2023-03-21T20:28:09.393Z,63.22
2023-03-21T20:30:37.455Z,58.60
2023-03-21T20:33:04.400Z,65.72
2023-03-21T20:36:16.460Z,59.05
2023-03-21T20:38:20.550Z,61.58
2023-03-21T20:40:48.106Z,56.65
2023-03-21T20:46:13.172Z,53.65
2023-03-21T20:48:40.260Z,59.40
2023-03-21T20:53:59.753Z,60.85
2023-03-21T20:56:26.875Z,62.53
2023-03-21T20:59:04.856Z,54.58
2023-03-21T21:01:39.452Z,42.78
2023-03-21T21:04:06.712Z,51.35
2023-03-21T21:06:33.811Z,47.28
2023-03-21T21:09:00.624Z,45.22
2023-03-21T21:12:05.222Z,46.88
2023-03-21T21:14:15.798Z,55.83
2023-03-21T21:16:42.989Z,49.92
2023-03-21T21:19:10.726Z,49.55
2023-03-21T21:21:37.945Z,47.60
2023-03-21T21:24:07.700Z,51.42
2023-03-21T21:26:35.179Z,52.67
2023-03-21T21:29:02.543Z,45.42
2023-03-21T21:31:29.358Z,46.92
2023-03-21T21:33:56.548Z,43.90
2023-03-21T21:36:23.317Z,40.00
2023-03-21T21:38:50.280Z,47.53
2023-03-21T21:41:24.344Z,40.45
2023-03-21T21:43:51.097Z,43.20
2023-03-21T21:46:18.473Z,46.85
2023-03-21T21:48:45.232Z,51.75
2023-03-21T21:51:11.963Z,42.47
2023-03-21T21:53:38.932Z,42.30
2023-03-21T21:56:09.515Z,41.10
2023-03-21T21:58:46.522Z,40.38
2023-03-21T22:01:13.402Z,43.63
2023-03-21T22:03:46.203Z,38.47
2023-03-21T22:06:13.388Z,48.13
2023-03-21T22:08:47.218Z,37.58
2023-03-21T22:11:14.754Z,52.15
2023-03-21T22:13:41.948Z,37.85
2023-03-21T22:16:09.456Z,41.28
2023-03-21T22:18:38.828Z,40.42
2023-03-21T22:21:06.794Z,40.28
2023-03-21T22:23:34.340Z,41.03
2023-03-21T22:26:01.654Z,44.72
2023-03-21T22:28:28.559Z,41.40
2023-03-21T22:30:56.013Z,40.85
2023-03-21T22:33:23.337Z,41.70
2023-03-21T22:35:51.628Z,43.17
2023-03-21T22:38:24.248Z,45.75
2023-03-21T22:40:59.381Z,39.70
2023-03-21T22:43:27.385Z,44.40
2023-03-21T22:45:54.846Z,43.35
2023-03-21T22:48:22.473Z,45.30
2023-03-21T22:50:49.730Z,44.42
2023-03-21T22:53:16.491Z,41.83
2023-03-21T22:55:43.545Z,44.38
2023-03-21T22:58:10.489Z,45.83
2023-03-21T23:00:38.139Z,46.92
2023-03-21T23:03:05.331Z,41.92
2023-03-21T23:05:32.157Z,40.95
2023-03-21T23:07:58.942Z,44.15
2023-03-21T23:10:26.084Z,38.47
2023-03-21T23:12:52.895Z,38.70
2023-03-21T23:15:20.089Z,42.03
2023-03-21T23:17:47.139Z,41.22
2023-03-21T23:20:13.982Z,37.90
2023-03-21T23:22:41.516Z,40.88
2023-03-21T23:25:08.889Z,42.88
2023-03-21T23:27:36.094Z,37.55
2023-03-21T23:30:07.460Z,39.20
2023-03-21T23:32:34.796Z,43.15
2023-03-21T23:35:01.599Z,44.85
2023-03-21T23:37:30.541Z,40.72
2023-03-21T23:39:57.267Z,39.03
2023-03-21T23:42:25.123Z,37.45
2023-03-21T23:44:52.290Z,40.20
2023-03-21T23:47:30.956Z,39.92
2023-03-21T23:49:58.563Z,44.65
2023-03-21T23:52:25.772Z,44.50
2023-03-21T23:54:52.516Z,42.67
2023-03-21T23:57:19.446Z,38.97
2023-03-21T23:59:47.297Z,43.65
